Stations météo

Publicité
Threave, Grande-Bretagne (99090): Température de l'air & dewpoint: 13.03.2019 05:00:00 - 19.03.2019 05:00:00 (GMT)Threave, Grande-Bretagne (99090): Température de l'air -20cm & Température de l'air -100cm: 13.03.2019 05:00:00 - 19.03.2019 05:00:00 (GMT)Threave, Grande-Bretagne (99090): Quantités de précipitations: 13.03.2019 05:00:00 - 19.03.2019 05:00:00 (GMT)
Date & Time tt [°C] td [°C] tt -20cm [°C] tt -100cm [°C] rr [mm]
19.03.2019 05:00:00 5,6 5,4 - - 0,0
19.03.2019 04:00:00 4,9 4,7 - - 0,0
19.03.2019 03:00:00 4,4 4,2 - - 0,0
19.03.2019 02:00:00 4,0 3,8 - - 0,0
19.03.2019 01:00:00 3,8 3,5 - - 0,0
19.03.2019 00:00:00 3,9 3,6 - - 0,2
18.03.2019 23:00:00 4,2 3,9 - - 0,0
18.03.2019 22:00:00 5,1 4,8 - - 0,0
18.03.2019 21:00:00 5,2 4,7 - - 0,0
18.03.2019 20:00:00 6,2 5,6 - - 0,0
18.03.2019 19:00:00 7,2 6,5 - - 0,0
18.03.2019 18:00:00 7,4 6,3 - - 0,0
18.03.2019 17:00:00 7,5 6,5 - - 0,0
18.03.2019 16:00:00 6,9 6,2 - - 0,2
18.03.2019 15:00:00 7,4 6,1 - - 0,2
18.03.2019 14:00:00 7,1 5,6 - - 0,2
18.03.2019 13:00:00 6,8 5,4 - - 0,4
18.03.2019 12:00:00 6,6 4,7 - - 0,4
18.03.2019 11:00:00 6,6 4,9 - - 0,2
18.03.2019 10:00:00 6,2 3,9 - - 0,0
18.03.2019 09:00:00 6,3 3,4 6,2 6,7 0,0
18.03.2019 08:00:00 5,1 3,5 - - 0,0
18.03.2019 07:00:00 4,7 3,1 - - 0,0
18.03.2019 06:00:00 4,4 3,1 - - 0,0
18.03.2019 05:00:00 3,6 2,5 - - 0,0
18.03.2019 04:00:00 3,5 2,2 - - 0,0
18.03.2019 03:00:00 3,5 1,9 - - 0,0
18.03.2019 02:00:00 2,9 1,2 - - 0,0
18.03.2019 01:00:00 3,1 0,7 - - 0,0
18.03.2019 00:00:00 3,6 0,2 - - 0,0
17.03.2019 23:00:00 2,4 -0,3 - - 0,0
17.03.2019 22:00:00 3,7 -0,4 - - 0,0
17.03.2019 21:00:00 3,9 -0,3 - - 0,0
17.03.2019 20:00:00 5,4 0,7 - - 0,0
17.03.2019 19:00:00 5,9 1,4 - - 0,0
17.03.2019 18:00:00 7,0 1,8 - - 0,0
17.03.2019 17:00:00 8,4 1,3 - - 0,0
17.03.2019 16:00:00 9,0 2,9 - - 0,0
17.03.2019 15:00:00 8,6 2,5 - - 0,0
17.03.2019 14:00:00 8,1 2,7 - - 0,0
17.03.2019 13:00:00 7,6 3,3 - - 0,0
17.03.2019 12:00:00 6,0 2,3 - - 0,0
17.03.2019 11:00:00 6,0 2,4 - - 0,0
17.03.2019 10:00:00 5,2 2,5 - - 0,0
17.03.2019 09:00:00 3,0 1,6 6,0 6,4 0,0
17.03.2019 08:00:00 1,0 0,3 - - 0,4
17.03.2019 07:00:00 1,1 0,3 - - 0,8
17.03.2019 06:00:00 1,8 0,8 - - 0,0
17.03.2019 05:00:00 1,6 0,2 - - 0,0
17.03.2019 04:00:00 2,1 0,9 - - 0,0
17.03.2019 03:00:00 2,2 0,7 - - 0,2
17.03.2019 02:00:00 2,6 1,2 - - 0,0
17.03.2019 01:00:00 2,5 1,0 - - 0,0
17.03.2019 00:00:00 3,5 1,5 - - 0,0
16.03.2019 23:00:00 3,1 0,8 - - 0,0
16.03.2019 22:00:00 2,6 0,6 - - 0,0
16.03.2019 21:00:00 2,9 0,8 - - 0,0
16.03.2019 20:00:00 3,4 0,7 - - 0,0
16.03.2019 19:00:00 3,6 1,0 - - 0,0
16.03.2019 18:00:00 4,3 1,2 - - 0,0
16.03.2019 17:00:00 4,9 2,2 - - 0,0
16.03.2019 16:00:00 5,8 4,0 - - 0,0
16.03.2019 15:00:00 7,9 5,9 - - 1,0
16.03.2019 14:00:00 10,2 8,5 - - 0,0
16.03.2019 13:00:00 10,6 8,6 - - 0,0
16.03.2019 12:00:00 10,6 8,9 - - 0,2
16.03.2019 11:00:00 9,9 9,1 - - 0,8
16.03.2019 10:00:00 8,9 8,9 - - 3,0
16.03.2019 09:00:00 2,7 2,4 6,9 6,9 3,8
16.03.2019 08:00:00 2,1 1,8 - - 4,2
16.03.2019 07:00:00 2,2 1,8 - - 3,4
16.03.2019 06:00:00 2,1 1,5 - - 2,4
16.03.2019 05:00:00 2,4 1,6 - - 1,8
16.03.2019 04:00:00 2,9 1,8 - - 1,0
16.03.2019 03:00:00 3,3 2,4 - - 1,0
16.03.2019 02:00:00 4,1 1,7 - - 0,0
16.03.2019 01:00:00 5,3 1,6 - - 0,0
16.03.2019 00:00:00 5,4 1,4 - - 0,0
15.03.2019 23:00:00 5,1 1,0 - - 0,0
15.03.2019 22:00:00 5,0 1,3 - - 0,0
15.03.2019 21:00:00 5,2 1,2 - - 0,0
15.03.2019 20:00:00 5,7 0,7 - - 0,0
15.03.2019 19:00:00 5,0 0,7 - - 0,0
15.03.2019 18:00:00 6,2 0,8 - - 0,0
15.03.2019 17:00:00 6,5 0,7 - - 0,0
15.03.2019 16:00:00 5,2 1,5 - - 0,2
15.03.2019 15:00:00 5,6 2,6 - - 0,0
15.03.2019 14:00:00 7,0 2,3 - - 0,4
15.03.2019 13:00:00 6,9 3,4 - - 0,4
15.03.2019 12:00:00 5,6 2,6 - - 0,6
15.03.2019 11:00:00 8,4 1,9 - - 0,0
15.03.2019 10:00:00 6,8 3,1 - - 0,2
15.03.2019 09:00:00 6,6 3,1 7,2 7,2 0,0
15.03.2019 08:00:00 6,3 3,4 - - 0,6
15.03.2019 07:00:00 7,0 3,9 - - 0,0
15.03.2019 06:00:00 7,2 5,0 - - 0,4
15.03.2019 05:00:00 8,5 6,0 - - 0,2
15.03.2019 04:00:00 9,7 8,4 - - 0,0
15.03.2019 03:00:00 8,5 8,2 - - 0,4
15.03.2019 02:00:00 6,9 6,5 - - 1,0
15.03.2019 01:00:00 6,6 6,2 - - 1,4
15.03.2019 00:00:00 6,3 5,7 - - 0,8
14.03.2019 23:00:00 6,4 5,1 - - 0,2
14.03.2019 22:00:00 6,9 4,4 - - 0,0
14.03.2019 21:00:00 7,1 3,8 - - 0,0
14.03.2019 20:00:00 7,0 3,2 - - 0,0
14.03.2019 19:00:00 7,1 3,1 - - 0,0
14.03.2019 18:00:00 7,6 2,7 - - 0,0
14.03.2019 17:00:00 8,3 2,9 - - 0,0
14.03.2019 16:00:00 9,1 3,4 - - 0,0
14.03.2019 15:00:00 9,4 3,2 - - 0,0
14.03.2019 14:00:00 9,5 2,9 - - 0,0
14.03.2019 13:00:00 9,5 3,2 - - 0,0
14.03.2019 12:00:00 9,1 4,8 - - 0,0
14.03.2019 11:00:00 9,0 3,1 - - 0,0
14.03.2019 10:00:00 8,4 3,6 - - 0,0
14.03.2019 09:00:00 7,6 4,0 6,7 6,9 0,2
14.03.2019 08:00:00 7,5 5,2 - - 1,2
14.03.2019 07:00:00 7,2 5,4 - - 0,2
14.03.2019 06:00:00 7,6 5,2 - - 1,8
14.03.2019 05:00:00 8,3 7,7 - - 1,8
14.03.2019 04:00:00 7,5 6,9 - - 1,2
14.03.2019 03:00:00 7,4 6,6 - - 1,6
14.03.2019 02:00:00 7,2 6,5 - - 1,6
14.03.2019 01:00:00 7,0 6,2 - - 1,6
14.03.2019 00:00:00 6,8 6,0 - - 1,2
13.03.2019 23:00:00 6,6 5,8 - - 1,2
13.03.2019 22:00:00 6,4 5,4 - - 0,6
13.03.2019 21:00:00 6,0 5,2 - - 0,6
13.03.2019 20:00:00 5,9 4,8 - - 0,2
13.03.2019 19:00:00 6,1 4,0 - - 0,0
13.03.2019 18:00:00 6,7 3,7 - - 0,2
13.03.2019 17:00:00 7,4 2,4 - - 0,0
13.03.2019 16:00:00 7,1 3,8 - - 0,6
13.03.2019 15:00:00 8,3 4,6 - - 0,6
13.03.2019 14:00:00 9,7 4,0 - - 0,2
13.03.2019 13:00:00 8,1 5,0 - - 0,0
13.03.2019 12:00:00 8,5 4,8 - - 0,0
13.03.2019 11:00:00 8,8 4,4 - - 0,0
13.03.2019 10:00:00 7,3 4,8 - - 0,4
13.03.2019 09:00:00 6,8 3,9 6,2 6,4 0,0
13.03.2019 08:00:00 6,5 3,4 - - 0,0
13.03.2019 07:00:00 5,5 3,3 - - 1,4
13.03.2019 06:00:00 6,2 2,6 - - 0,0
13.03.2019 05:00:00 6,1 3,4 - - 0,2

tt = Température de l'air
td = dewpoint
tt -20cm = Température de l'air -20cm
tt -100cm = Température de l'air -100cm
rr = Quantités de précipitations

stations d'obs. à proximité